sensor_id;sensor_type;location;lat;lon;timestamp;P1;durP1;ratioP1;P2;durP2;ratioP2
19733;SDS011;10018;51.230;7.860;2023-05-10T00:00:42;3.07;;;0.67;;
19733;SDS011;10018;51.230;7.860;2023-05-10T00:03:10;1.80;;;0.60;;
19733;SDS011;10018;51.230;7.860;2023-05-10T00:05:35;2.40;;;0.70;;
19733;SDS011;10018;51.230;7.860;2023-05-10T00:08:01;1.27;;;0.63;;
19733;SDS011;10018;51.230;7.860;2023-05-10T00:10:26;0.80;;;0.60;;
19733;SDS011;10018;51.230;7.860;2023-05-10T00:12:52;0.80;;;0.60;;
19733;SDS011;10018;51.230;7.860;2023-05-10T00:15:17;2.60;;;0.67;;
19733;SDS011;10018;51.230;7.860;2023-05-10T00:17:43;1.13;;;0.60;;
19733;SDS011;10018;51.230;7.860;2023-05-10T00:20:09;1.77;;;0.77;;
19733;SDS011;10018;51.230;7.860;2023-05-10T00:22:35;2.87;;;0.77;;
19733;SDS011;10018;51.230;7.860;2023-05-10T00:25:01;1.20;;;0.60;;
19733;SDS011;10018;51.230;7.860;2023-05-10T00:27:26;0.83;;;0.63;;
19733;SDS011;10018;51.230;7.860;2023-05-10T00:29:52;0.60;;;0.47;;
19733;SDS011;10018;51.230;7.860;2023-05-10T00:32:20;0.60;;;0.60;;
19733;SDS011;10018;51.230;7.860;2023-05-10T00:34:45;1.73;;;0.60;;
19733;SDS011;10018;51.230;7.860;2023-05-10T00:37:13;0.50;;;0.40;;
19733;SDS011;10018;51.230;7.860;2023-05-10T00:39:39;1.23;;;0.50;;
19733;SDS011;10018;51.230;7.860;2023-05-10T00:42:04;0.80;;;0.53;;
19733;SDS011;10018;51.230;7.860;2023-05-10T00:44:33;0.93;;;0.40;;
19733;SDS011;10018;51.230;7.860;2023-05-10T00:47:01;0.83;;;0.40;;
19733;SDS011;10018;51.230;7.860;2023-05-10T00:49:26;2.17;;;0.60;;
19733;SDS011;10018;51.230;7.860;2023-05-10T00:51:53;1.03;;;0.50;;
19733;SDS011;10018;51.230;7.860;2023-05-10T00:54:18;0.70;;;0.50;;
19733;SDS011;10018;51.230;7.860;2023-05-10T00:56:44;2.00;;;0.50;;
19733;SDS011;10018;51.230;7.860;2023-05-10T00:59:14;1.90;;;0.50;;
19733;SDS011;10018;51.230;7.860;2023-05-10T01:01:41;3.70;;;0.50;;
19733;SDS011;10018;51.230;7.860;2023-05-10T01:04:08;0.60;;;0.50;;
19733;SDS011;10018;51.230;7.860;2023-05-10T01:06:35;1.90;;;0.50;;
19733;SDS011;10018;51.230;7.860;2023-05-10T01:15:16;2.33;;;0.50;;
19733;SDS011;10018;51.230;7.860;2023-05-10T01:17:43;1.77;;;0.50;;
19733;SDS011;10018;51.230;7.860;2023-05-10T01:20:11;1.03;;;0.63;;
19733;SDS011;10018;51.230;7.860;2023-05-10T01:36:26;2.03;;;0.60;;
19733;SDS011;10018;51.230;7.860;2023-05-10T01:41:52;0.50;;;0.40;;
19733;SDS011;10018;51.230;7.860;2023-05-10T01:46:57;0.90;;;0.60;;
19733;SDS011;10018;51.230;7.860;2023-05-10T01:49:49;3.70;;;0.60;;
19733;SDS011;10018;51.230;7.860;2023-05-10T01:52:18;0.63;;;0.53;;
19733;SDS011;10018;51.230;7.860;2023-05-10T01:54:55;4.17;;;0.70;;
19733;SDS011;10018;51.230;7.860;2023-05-10T01:57:27;0.80;;;0.60;;
19733;SDS011;10018;51.230;7.860;2023-05-10T01:59:59;4.20;;;0.50;;
19733;SDS011;10018;51.230;7.860;2023-05-10T02:02:27;0.60;;;0.50;;
19733;SDS011;10018;51.230;7.860;2023-05-10T02:04:54;1.33;;;0.60;;
19733;SDS011;10018;51.230;7.860;2023-05-10T02:07:22;2.90;;;0.50;;
19733;SDS011;10018;51.230;7.860;2023-05-10T02:09:51;1.23;;;0.40;;
19733;SDS011;10018;51.230;7.860;2023-05-10T02:12:17;1.30;;;0.60;;
19733;SDS011;10018;51.230;7.860;2023-05-10T02:14:45;1.53;;;0.50;;
19733;SDS011;10018;51.230;7.860;2023-05-10T02:17:12;0.97;;;0.53;;
19733;SDS011;10018;51.230;7.860;2023-05-10T02:19:40;3.27;;;0.70;;
19733;SDS011;10018;51.230;7.860;2023-05-10T02:22:09;1.50;;;0.63;;
19733;SDS011;10018;51.230;7.860;2023-05-10T02:24:35;1.00;;;0.60;;
19733;SDS011;10018;51.230;7.860;2023-05-10T02:27:02;2.10;;;0.70;;
19733;SDS011;10018;51.230;7.860;2023-05-10T02:29:29;2.63;;;0.70;;
19733;SDS011;10018;51.230;7.860;2023-05-10T02:31:57;1.77;;;0.60;;
19733;SDS011;10018;51.230;7.860;2023-05-10T02:34:25;1.70;;;0.70;;
19733;SDS011;10018;51.230;7.860;2023-05-10T02:36:53;2.27;;;0.50;;
19733;SDS011;10018;51.230;7.860;2023-05-10T02:39:20;1.63;;;0.60;;
19733;SDS011;10018;51.230;7.860;2023-05-10T02:41:48;1.80;;;0.60;;
19733;SDS011;10018;51.230;7.860;2023-05-10T02:44:15;1.97;;;0.63;;
19733;SDS011;10018;51.230;7.860;2023-05-10T02:46:44;1.77;;;0.70;;
19733;SDS011;10018;51.230;7.860;2023-05-10T02:49:10;2.73;;;0.50;;
19733;SDS011;10018;51.230;7.860;2023-05-10T02:51:36;1.90;;;0.57;;
19733;SDS011;10018;51.230;7.860;2023-05-10T02:54:07;3.20;;;0.80;;
19733;SDS011;10018;51.230;7.860;2023-05-10T02:56:37;1.73;;;0.60;;
19733;SDS011;10018;51.230;7.860;2023-05-10T02:59:11;1.13;;;0.50;;
19733;SDS011;10018;51.230;7.860;2023-05-10T03:01:37;2.83;;;0.60;;
19733;SDS011;10018;51.230;7.860;2023-05-10T03:04:03;1.30;;;0.60;;
19733;SDS011;10018;51.230;7.860;2023-05-10T03:06:29;0.70;;;0.50;;
19733;SDS011;10018;51.230;7.860;2023-05-10T03:08:56;0.87;;;0.50;;
19733;SDS011;10018;51.230;7.860;2023-05-10T03:16:44;0.97;;;0.60;;
19733;SDS011;10018;51.230;7.860;2023-05-10T03:19:15;1.47;;;0.77;;
19733;SDS011;10018;51.230;7.860;2023-05-10T03:21:51;1.23;;;0.70;;
19733;SDS011;10018;51.230;7.860;2023-05-10T03:24:20;1.27;;;0.80;;
19733;SDS011;10018;51.230;7.860;2023-05-10T03:26:47;1.83;;;1.00;;
19733;SDS011;10018;51.230;7.860;2023-05-10T03:29:16;2.60;;;0.93;;
19733;SDS011;10018;51.230;7.860;2023-05-10T03:31:45;2.07;;;0.93;;
19733;SDS011;10018;51.230;7.860;2023-05-10T03:34:11;2.20;;;1.20;;
19733;SDS011;10018;51.230;7.860;2023-05-10T03:36:36;2.80;;;1.30;;
19733;SDS011;10018;51.230;7.860;2023-05-10T03:39:02;1.33;;;0.93;;
19733;SDS011;10018;51.230;7.860;2023-05-10T03:41:27;1.70;;;0.97;;
19733;SDS011;10018;51.230;7.860;2023-05-10T03:43:53;2.30;;;1.20;;
19733;SDS011;10018;51.230;7.860;2023-05-10T03:46:19;2.83;;;1.07;;
19733;SDS011;10018;51.230;7.860;2023-05-10T03:48:45;2.67;;;1.30;;
19733;SDS011;10018;51.230;7.860;2023-05-10T03:51:12;3.77;;;1.17;;
19733;SDS011;10018;51.230;7.860;2023-05-10T03:53:38;4.53;;;1.40;;
19733;SDS011;10018;51.230;7.860;2023-05-10T03:56:03;2.73;;;1.50;;
19733;SDS011;10018;51.230;7.860;2023-05-10T03:58:29;4.37;;;1.30;;
19733;SDS011;10018;51.230;7.860;2023-05-10T04:00:55;5.90;;;1.70;;
19733;SDS011;10018;51.230;7.860;2023-05-10T04:03:23;4.43;;;1.70;;
19733;SDS011;10018;51.230;7.860;2023-05-10T04:05:57;3.67;;;1.60;;
19733;SDS011;10018;51.230;7.860;2023-05-10T04:08:25;2.60;;;1.60;;
19733;SDS011;10018;51.230;7.860;2023-05-10T04:10:50;5.00;;;2.17;;
19733;SDS011;10018;51.230;7.860;2023-05-10T04:13:16;4.23;;;2.40;;
19733;SDS011;10018;51.230;7.860;2023-05-10T04:15:42;4.30;;;2.10;;
19733;SDS011;10018;51.230;7.860;2023-05-10T04:18:10;5.07;;;2.17;;
19733;SDS011;10018;51.230;7.860;2023-05-10T04:20:35;5.20;;;1.87;;
19733;SDS011;10018;51.230;7.860;2023-05-10T04:23:01;3.20;;;1.80;;
19733;SDS011;10018;51.230;7.860;2023-05-10T04:25:29;3.27;;;1.70;;
19733;SDS011;10018;51.230;7.860;2023-05-10T04:27:54;5.70;;;2.50;;
19733;SDS011;10018;51.230;7.860;2023-05-10T04:30:20;3.90;;;2.60;;
19733;SDS011;10018;51.230;7.860;2023-05-10T04:32:46;8.90;;;2.67;;
19733;SDS011;10018;51.230;7.860;2023-05-10T04:35:11;5.93;;;2.67;;
19733;SDS011;10018;51.230;7.860;2023-05-10T04:37:37;4.37;;;2.00;;
19733;SDS011;10018;51.230;7.860;2023-05-10T04:40:02;4.47;;;2.40;;
19733;SDS011;10018;51.230;7.860;2023-05-10T04:42:28;3.70;;;2.40;;
19733;SDS011;10018;51.230;7.860;2023-05-10T04:44:54;5.77;;;2.60;;
19733;SDS011;10018;51.230;7.860;2023-05-10T04:47:19;3.53;;;2.50;;
19733;SDS011;10018;51.230;7.860;2023-05-10T04:49:45;7.17;;;3.10;;
19733;SDS011;10018;51.230;7.860;2023-05-10T04:52:11;4.77;;;2.90;;
19733;SDS011;10018;51.230;7.860;2023-05-10T04:54:36;3.67;;;2.63;;
19733;SDS011;10018;51.230;7.860;2023-05-10T04:57:02;6.80;;;2.80;;
19733;SDS011;10018;51.230;7.860;2023-05-10T04:59:28;5.97;;;2.60;;
19733;SDS011;10018;51.230;7.860;2023-05-10T05:01:53;5.67;;;2.80;;
19733;SDS011;10018;51.230;7.860;2023-05-10T05:04:19;6.27;;;2.80;;
19733;SDS011;10018;51.230;7.860;2023-05-10T05:06:44;3.70;;;2.33;;
19733;SDS011;10018;51.230;7.860;2023-05-10T05:09:10;6.73;;;2.87;;
19733;SDS011;10018;51.230;7.860;2023-05-10T05:11:35;4.27;;;3.03;;
19733;SDS011;10018;51.230;7.860;2023-05-10T05:14:01;5.73;;;3.30;;
19733;SDS011;10018;51.230;7.860;2023-05-10T05:16:27;6.60;;;3.77;;
19733;SDS011;10018;51.230;7.860;2023-05-10T05:18:55;5.33;;;3.40;;
19733;SDS011;10018;51.230;7.860;2023-05-10T05:21:21;6.83;;;3.43;;
19733;SDS011;10018;51.230;7.860;2023-05-10T05:23:47;6.67;;;4.00;;
19733;SDS011;10018;51.230;7.860;2023-05-10T05:26:15;4.80;;;3.30;;
19733;SDS011;10018;51.230;7.860;2023-05-10T05:28:41;5.27;;;3.60;;
19733;SDS011;10018;51.230;7.860;2023-05-10T05:31:06;5.90;;;3.63;;
19733;SDS011;10018;51.230;7.860;2023-05-10T05:33:32;5.17;;;3.70;;
19733;SDS011;10018;51.230;7.860;2023-05-10T05:36:02;6.40;;;4.60;;
19733;SDS011;10018;51.230;7.860;2023-05-10T05:38:28;36.57;;;25.73;;
19733;SDS011;10018;51.230;7.860;2023-05-10T05:40:54;43.93;;;31.03;;
19733;SDS011;10018;51.230;7.860;2023-05-10T05:43:20;26.93;;;19.20;;
19733;SDS011;10018;51.230;7.860;2023-05-10T05:45:48;16.07;;;11.27;;
19733;SDS011;10018;51.230;7.860;2023-05-10T05:48:13;14.50;;;10.07;;
19733;SDS011;10018;51.230;7.860;2023-05-10T05:50:39;13.57;;;7.00;;
19733;SDS011;10018;51.230;7.860;2023-05-10T05:53:07;10.67;;;7.10;;
19733;SDS011;10018;51.230;7.860;2023-05-10T05:55:32;14.83;;;8.80;;
19733;SDS011;10018;51.230;7.860;2023-05-10T05:57:58;9.83;;;7.00;;
19733;SDS011;10018;51.230;7.860;2023-05-10T06:00:24;12.50;;;8.10;;
19733;SDS011;10018;51.230;7.860;2023-05-10T06:02:50;9.63;;;7.30;;
19733;SDS011;10018;51.230;7.860;2023-05-10T06:05:16;9.73;;;6.17;;
19733;SDS011;10018;51.230;7.860;2023-05-10T06:07:45;9.60;;;6.43;;
19733;SDS011;10018;51.230;7.860;2023-05-10T06:10:10;8.63;;;5.83;;
19733;SDS011;10018;51.230;7.860;2023-05-10T06:12:36;15.10;;;9.37;;
19733;SDS011;10018;51.230;7.860;2023-05-10T06:15:02;14.77;;;11.03;;
19733;SDS011;10018;51.230;7.860;2023-05-10T06:17:28;15.03;;;9.83;;
19733;SDS011;10018;51.230;7.860;2023-05-10T06:19:54;14.77;;;9.90;;
19733;SDS011;10018;51.230;7.860;2023-05-10T06:22:20;12.63;;;8.80;;
19733;SDS011;10018;51.230;7.860;2023-05-10T06:24:49;12.07;;;8.10;;
19733;SDS011;10018;51.230;7.860;2023-05-10T06:27:14;11.93;;;7.80;;
19733;SDS011;10018;51.230;7.860;2023-05-10T06:29:40;13.77;;;8.63;;
19733;SDS011;10018;51.230;7.860;2023-05-10T06:32:06;13.30;;;9.33;;
19733;SDS011;10018;51.230;7.860;2023-05-10T06:34:31;13.40;;;9.23;;
19733;SDS011;10018;51.230;7.860;2023-05-10T06:36:59;12.60;;;8.80;;
19733;SDS011;10018;51.230;7.860;2023-05-10T06:39:25;15.20;;;9.10;;
19733;SDS011;10018;51.230;7.860;2023-05-10T06:41:53;18.27;;;9.70;;
19733;SDS011;10018;51.230;7.860;2023-05-10T06:44:19;15.53;;;9.30;;
19733;SDS011;10018;51.230;7.860;2023-05-10T06:46:47;14.43;;;9.83;;
19733;SDS011;10018;51.230;7.860;2023-05-10T06:49:12;14.20;;;9.03;;
19733;SDS011;10018;51.230;7.860;2023-05-10T06:51:38;17.77;;;10.53;;
19733;SDS011;10018;51.230;7.860;2023-05-10T06:54:03;15.10;;;8.90;;
19733;SDS011;10018;51.230;7.860;2023-05-10T06:56:29;15.07;;;8.60;;
19733;SDS011;10018;51.230;7.860;2023-05-10T06:58:55;14.30;;;8.83;;
19733;SDS011;10018;51.230;7.860;2023-05-10T07:01:20;12.60;;;8.70;;
19733;SDS011;10018;51.230;7.860;2023-05-10T07:03:46;13.83;;;9.47;;
19733;SDS011;10018;51.230;7.860;2023-05-10T07:06:11;14.00;;;9.10;;
19733;SDS011;10018;51.230;7.860;2023-05-10T07:08:37;14.10;;;9.90;;
19733;SDS011;10018;51.230;7.860;2023-05-10T07:11:04;15.80;;;9.57;;
19733;SDS011;10018;51.230;7.860;2023-05-10T07:13:32;14.17;;;8.93;;
19733;SDS011;10018;51.230;7.860;2023-05-10T07:16:01;12.73;;;8.53;;
19733;SDS011;10018;51.230;7.860;2023-05-10T07:18:29;13.20;;;8.97;;
19733;SDS011;10018;51.230;7.860;2023-05-10T07:20:54;15.60;;;8.53;;
19733;SDS011;10018;51.230;7.860;2023-05-10T07:23:21;11.33;;;7.70;;
19733;SDS011;10018;51.230;7.860;2023-05-10T07:25:47;17.20;;;9.47;;
19733;SDS011;10018;51.230;7.860;2023-05-10T07:28:14;12.70;;;8.83;;
19733;SDS011;10018;51.230;7.860;2023-05-10T07:30:41;11.83;;;9.00;;
19733;SDS011;10018;51.230;7.860;2023-05-10T07:33:07;14.00;;;8.70;;
19733;SDS011;10018;51.230;7.860;2023-05-10T07:35:34;12.37;;;8.60;;
19733;SDS011;10018;51.230;7.860;2023-05-10T07:38:00;15.87;;;9.63;;
19733;SDS011;10018;51.230;7.860;2023-05-10T07:40:26;14.77;;;8.77;;
19733;SDS011;10018;51.230;7.860;2023-05-10T07:42:51;12.30;;;7.40;;
19733;SDS011;10018;51.230;7.860;2023-05-10T07:45:17;10.80;;;7.50;;
19733;SDS011;10018;51.230;7.860;2023-05-10T07:47:43;11.97;;;8.17;;
19733;SDS011;10018;51.230;7.860;2023-05-10T07:50:08;12.30;;;7.90;;
19733;SDS011;10018;51.230;7.860;2023-05-10T07:52:34;10.77;;;7.03;;
19733;SDS011;10018;51.230;7.860;2023-05-10T07:55:00;14.43;;;7.90;;
19733;SDS011;10018;51.230;7.860;2023-05-10T07:57:25;13.83;;;8.57;;
19733;SDS011;10018;51.230;7.860;2023-05-10T07:59:51;14.60;;;8.70;;
19733;SDS011;10018;51.230;7.860;2023-05-10T08:02:17;15.50;;;9.60;;
19733;SDS011;10018;51.230;7.860;2023-05-10T08:04:42;18.63;;;9.77;;
19733;SDS011;10018;51.230;7.860;2023-05-10T08:07:10;13.97;;;9.07;;
19733;SDS011;10018;51.230;7.860;2023-05-10T08:09:36;18.57;;;10.03;;
19733;SDS011;10018;51.230;7.860;2023-05-10T08:12:01;15.20;;;9.47;;
19733;SDS011;10018;51.230;7.860;2023-05-10T08:14:28;15.43;;;9.37;;
19733;SDS011;10018;51.230;7.860;2023-05-10T08:16:54;16.67;;;10.00;;
19733;SDS011;10018;51.230;7.860;2023-05-10T08:19:24;16.00;;;9.63;;
19733;SDS011;10018;51.230;7.860;2023-05-10T08:21:49;14.63;;;9.30;;
19733;SDS011;10018;51.230;7.860;2023-05-10T08:24:15;19.37;;;10.30;;
19733;SDS011;10018;51.230;7.860;2023-05-10T08:26:41;15.03;;;9.47;;
19733;SDS011;10018;51.230;7.860;2023-05-10T08:29:07;17.03;;;10.47;;
19733;SDS011;10018;51.230;7.860;2023-05-10T08:31:32;15.67;;;9.83;;
19733;SDS011;10018;51.230;7.860;2023-05-10T08:33:58;14.93;;;9.77;;
19733;SDS011;10018;51.230;7.860;2023-05-10T08:36:23;14.90;;;9.43;;
19733;SDS011;10018;51.230;7.860;2023-05-10T08:38:52;12.37;;;8.70;;
19733;SDS011;10018;51.230;7.860;2023-05-10T08:41:21;12.60;;;7.87;;
19733;SDS011;10018;51.230;7.860;2023-05-10T08:43:50;14.50;;;8.37;;
19733;SDS011;10018;51.230;7.860;2023-05-10T08:46:16;13.20;;;7.60;;
19733;SDS011;10018;51.230;7.860;2023-05-10T08:48:46;12.50;;;8.00;;
19733;SDS011;10018;51.230;7.860;2023-05-10T08:51:14;14.10;;;7.80;;
19733;SDS011;10018;51.230;7.860;2023-05-10T08:53:44;13.40;;;7.27;;
19733;SDS011;10018;51.230;7.860;2023-05-10T08:56:12;12.70;;;7.27;;
19733;SDS011;10018;51.230;7.860;2023-05-10T08:58:38;10.90;;;6.70;;
19733;SDS011;10018;51.230;7.860;2023-05-10T09:01:04;15.30;;;6.60;;
19733;SDS011;10018;51.230;7.860;2023-05-10T09:03:33;11.77;;;7.40;;
19733;SDS011;10018;51.230;7.860;2023-05-10T09:06:01;13.80;;;7.17;;
19733;SDS011;10018;51.230;7.860;2023-05-10T09:08:26;12.67;;;7.10;;
19733;SDS011;10018;51.230;7.860;2023-05-10T09:10:53;11.20;;;8.30;;
19733;SDS011;10018;51.230;7.860;2023-05-10T09:13:19;12.83;;;7.37;;
19733;SDS011;10018;51.230;7.860;2023-05-10T09:15:46;11.17;;;7.07;;
19733;SDS011;10018;51.230;7.860;2023-05-10T09:18:13;11.00;;;6.97;;
19733;SDS011;10018;51.230;7.860;2023-05-10T09:20:38;11.63;;;7.60;;
19733;SDS011;10018;51.230;7.860;2023-05-10T09:23:05;10.83;;;7.30;;
19733;SDS011;10018;51.230;7.860;2023-05-10T09:25:30;12.57;;;7.23;;
19733;SDS011;10018;51.230;7.860;2023-05-10T09:27:58;12.53;;;6.50;;
19733;SDS011;10018;51.230;7.860;2023-05-10T09:30:25;10.43;;;6.33;;
19733;SDS011;10018;51.230;7.860;2023-05-10T09:32:53;12.77;;;6.73;;
19733;SDS011;10018;51.230;7.860;2023-05-10T09:35:20;10.83;;;6.63;;
19733;SDS011;10018;51.230;7.860;2023-05-10T09:37:48;14.60;;;7.23;;
19733;SDS011;10018;51.230;7.860;2023-05-10T09:40:19;11.70;;;6.10;;
19733;SDS011;10018;51.230;7.860;2023-05-10T09:42:53;10.17;;;5.67;;
19733;SDS011;10018;51.230;7.860;2023-05-10T09:45:31;7.67;;;4.90;;
19733;SDS011;10018;51.230;7.860;2023-05-10T09:47:57;9.00;;;4.90;;
19733;SDS011;10018;51.230;7.860;2023-05-10T09:50:24;9.53;;;5.20;;
19733;SDS011;10018;51.230;7.860;2023-05-10T09:52:54;7.90;;;5.03;;
19733;SDS011;10018;51.230;7.860;2023-05-10T09:55:24;8.47;;;4.80;;
19733;SDS011;10018;51.230;7.860;2023-05-10T09:58:05;10.97;;;4.83;;
19733;SDS011;10018;51.230;7.860;2023-05-10T10:00:35;7.33;;;4.77;;
19733;SDS011;10018;51.230;7.860;2023-05-10T10:03:11;7.33;;;4.30;;
19733;SDS011;10018;51.230;7.860;2023-05-10T10:05:43;6.37;;;3.97;;
19733;SDS011;10018;51.230;7.860;2023-05-10T10:08:12;6.47;;;4.17;;
19733;SDS011;10018;51.230;7.860;2023-05-10T10:10:38;7.00;;;4.70;;
19733;SDS011;10018;51.230;7.860;2023-05-10T10:13:05;11.17;;;4.57;;
19733;SDS011;10018;51.230;7.860;2023-05-10T10:15:32;8.10;;;4.73;;
19733;SDS011;10018;51.230;7.860;2023-05-10T10:18:01;8.00;;;4.17;;
19733;SDS011;10018;51.230;7.860;2023-05-10T10:20:30;6.57;;;4.00;;
19733;SDS011;10018;51.230;7.860;2023-05-10T10:22:56;9.23;;;3.93;;
19733;SDS011;10018;51.230;7.860;2023-05-10T10:25:22;7.03;;;3.87;;
19733;SDS011;10018;51.230;7.860;2023-05-10T10:35:55;5.50;;;3.70;;
19733;SDS011;10018;51.230;7.860;2023-05-10T10:38:24;6.60;;;3.33;;
19733;SDS011;10018;51.230;7.860;2023-05-10T10:49:24;8.93;;;3.50;;
19733;SDS011;10018;51.230;7.860;2023-05-10T10:52:12;6.17;;;4.00;;
19733;SDS011;10018;51.230;7.860;2023-05-10T10:54:38;5.87;;;3.87;;
19733;SDS011;10018;51.230;7.860;2023-05-10T10:57:13;5.83;;;4.10;;
19733;SDS011;10018;51.230;7.860;2023-05-10T10:59:43;5.33;;;3.30;;
19733;SDS011;10018;51.230;7.860;2023-05-10T11:02:11;6.77;;;3.43;;
19733;SDS011;10018;51.230;7.860;2023-05-10T11:04:59;5.93;;;3.57;;
19733;SDS011;10018;51.230;7.860;2023-05-10T11:07:25;7.57;;;3.93;;
19733;SDS011;10018;51.230;7.860;2023-05-10T11:09:51;8.17;;;3.50;;
19733;SDS011;10018;51.230;7.860;2023-05-10T11:12:17;5.23;;;3.50;;
19733;SDS011;10018;51.230;7.860;2023-05-10T11:14:42;7.40;;;3.73;;
19733;SDS011;10018;51.230;7.860;2023-05-10T11:17:29;5.50;;;3.57;;
19733;SDS011;10018;51.230;7.860;2023-05-10T11:20:10;6.27;;;3.50;;
19733;SDS011;10018;51.230;7.860;2023-05-10T11:22:49;6.07;;;3.13;;
19733;SDS011;10018;51.230;7.860;2023-05-10T11:25:16;6.30;;;3.40;;
19733;SDS011;10018;51.230;7.860;2023-05-10T11:27:42;5.50;;;3.70;;
19733;SDS011;10018;51.230;7.860;2023-05-10T11:30:09;7.40;;;3.50;;
19733;SDS011;10018;51.230;7.860;2023-05-10T11:32:39;6.60;;;3.40;;
19733;SDS011;10018;51.230;7.860;2023-05-10T11:35:09;7.97;;;3.50;;
19733;SDS011;10018;51.230;7.860;2023-05-10T11:37:40;4.23;;;3.27;;
19733;SDS011;10018;51.230;7.860;2023-05-10T11:40:08;5.30;;;3.00;;
19733;SDS011;10018;51.230;7.860;2023-05-10T11:42:37;5.80;;;3.20;;
19733;SDS011;10018;51.230;7.860;2023-05-10T11:45:03;5.93;;;3.40;;
19733;SDS011;10018;51.230;7.860;2023-05-10T11:47:30;7.03;;;4.03;;
19733;SDS011;10018;51.230;7.860;2023-05-10T11:49:55;7.87;;;4.30;;
19733;SDS011;10018;51.230;7.860;2023-05-10T11:52:22;8.67;;;5.07;;
19733;SDS011;10018;51.230;7.860;2023-05-10T11:54:51;10.50;;;5.93;;
19733;SDS011;10018;51.230;7.860;2023-05-10T11:57:21;10.33;;;6.03;;
19733;SDS011;10018;51.230;7.860;2023-05-10T11:59:54;11.33;;;6.67;;
19733;SDS011;10018;51.230;7.860;2023-05-10T12:02:21;11.97;;;6.77;;
19733;SDS011;10018;51.230;7.860;2023-05-10T12:04:49;11.83;;;6.23;;
19733;SDS011;10018;51.230;7.860;2023-05-10T12:07:16;10.63;;;7.33;;
19733;SDS011;10018;51.230;7.860;2023-05-10T12:10:02;13.30;;;7.47;;
19733;SDS011;10018;51.230;7.860;2023-05-10T12:12:41;10.90;;;7.30;;
19733;SDS011;10018;51.230;7.860;2023-05-10T12:15:12;15.90;;;9.17;;
19733;SDS011;10018;51.230;7.860;2023-05-10T12:17:44;15.00;;;9.67;;
19733;SDS011;10018;51.230;7.860;2023-05-10T12:20:17;17.17;;;9.63;;
19733;SDS011;10018;51.230;7.860;2023-05-10T12:22:49;15.60;;;9.90;;
19733;SDS011;10018;51.230;7.860;2023-05-10T12:25:17;17.30;;;10.27;;
19733;SDS011;10018;51.230;7.860;2023-05-10T12:27:57;20.43;;;11.43;;
19733;SDS011;10018;51.230;7.860;2023-05-10T12:30:26;18.23;;;11.90;;
19733;SDS011;10018;51.230;7.860;2023-05-10T12:32:53;20.47;;;12.77;;
19733;SDS011;10018;51.230;7.860;2023-05-10T12:35:24;21.70;;;13.37;;
19733;SDS011;10018;51.230;7.860;2023-05-10T12:37:52;25.00;;;14.03;;
19733;SDS011;10018;51.230;7.860;2023-05-10T12:40:18;23.43;;;14.30;;
19733;SDS011;10018;51.230;7.860;2023-05-10T12:42:44;23.93;;;14.53;;
19733;SDS011;10018;51.230;7.860;2023-05-10T12:45:10;27.57;;;14.83;;
19733;SDS011;10018;51.230;7.860;2023-05-10T12:47:36;24.77;;;14.60;;
19733;SDS011;10018;51.230;7.860;2023-05-10T12:50:02;23.20;;;14.07;;
19733;SDS011;10018;51.230;7.860;2023-05-10T12:52:28;23.63;;;14.60;;
19733;SDS011;10018;51.230;7.860;2023-05-10T12:54:54;22.77;;;14.07;;
19733;SDS011;10018;51.230;7.860;2023-05-10T12:57:20;23.00;;;13.60;;
19733;SDS011;10018;51.230;7.860;2023-05-10T12:59:49;22.93;;;12.93;;
19733;SDS011;10018;51.230;7.860;2023-05-10T13:02:16;19.80;;;12.33;;
19733;SDS011;10018;51.230;7.860;2023-05-10T13:04:46;21.03;;;13.27;;
19733;SDS011;10018;51.230;7.860;2023-05-10T13:07:12;20.43;;;13.17;;
19733;SDS011;10018;51.230;7.860;2023-05-10T13:09:38;19.83;;;13.23;;
19733;SDS011;10018;51.230;7.860;2023-05-10T13:12:08;19.33;;;12.37;;
19733;SDS011;10018;51.230;7.860;2023-05-10T13:14:33;19.40;;;12.70;;
19733;SDS011;10018;51.230;7.860;2023-05-10T13:16:59;23.73;;;12.67;;
19733;SDS011;10018;51.230;7.860;2023-05-10T13:19:25;18.70;;;11.97;;
19733;SDS011;10018;51.230;7.860;2023-05-10T13:21:51;19.93;;;11.93;;
19733;SDS011;10018;51.230;7.860;2023-05-10T13:24:16;18.53;;;10.97;;
19733;SDS011;10018;51.230;7.860;2023-05-10T13:26:42;18.43;;;11.83;;
19733;SDS011;10018;51.230;7.860;2023-05-10T13:29:08;20.67;;;11.60;;
19733;SDS011;10018;51.230;7.860;2023-05-10T13:31:34;16.10;;;10.93;;
19733;SDS011;10018;51.230;7.860;2023-05-10T13:34:00;19.47;;;11.33;;
19733;SDS011;10018;51.230;7.860;2023-05-10T13:36:26;16.80;;;9.97;;
19733;SDS011;10018;51.230;7.860;2023-05-10T13:38:51;16.87;;;10.37;;
19733;SDS011;10018;51.230;7.860;2023-05-10T13:41:17;15.90;;;9.17;;
19733;SDS011;10018;51.230;7.860;2023-05-10T13:43:43;15.60;;;10.27;;
19733;SDS011;10018;51.230;7.860;2023-05-10T13:46:08;15.00;;;9.30;;
19733;SDS011;10018;51.230;7.860;2023-05-10T13:48:34;18.17;;;9.70;;
19733;SDS011;10018;51.230;7.860;2023-05-10T13:51:01;16.27;;;9.17;;
19733;SDS011;10018;51.230;7.860;2023-05-10T13:53:30;15.17;;;8.30;;
19733;SDS011;10018;51.230;7.860;2023-05-10T13:55:55;13.80;;;7.37;;
19733;SDS011;10018;51.230;7.860;2023-05-10T13:58:22;14.60;;;8.00;;
19733;SDS011;10018;51.230;7.860;2023-05-10T14:00:48;12.87;;;7.80;;
19733;SDS011;10018;51.230;7.860;2023-05-10T14:03:16;14.23;;;7.80;;
19733;SDS011;10018;51.230;7.860;2023-05-10T14:05:41;13.77;;;8.17;;
19733;SDS011;10018;51.230;7.860;2023-05-10T14:08:10;15.37;;;9.07;;
19733;SDS011;10018;51.230;7.860;2023-05-10T14:10:37;12.90;;;8.80;;
19733;SDS011;10018;51.230;7.860;2023-05-10T14:13:04;13.57;;;8.80;;
19733;SDS011;10018;51.230;7.860;2023-05-10T14:15:30;13.50;;;8.57;;
19733;SDS011;10018;51.230;7.860;2023-05-10T14:17:55;15.73;;;8.37;;
19733;SDS011;10018;51.230;7.860;2023-05-10T14:20:21;14.90;;;9.20;;
19733;SDS011;10018;51.230;7.860;2023-05-10T14:22:47;14.07;;;8.83;;
19733;SDS011;10018;51.230;7.860;2023-05-10T14:25:12;13.27;;;8.20;;
19733;SDS011;10018;51.230;7.860;2023-05-10T14:27:39;17.80;;;9.50;;
19733;SDS011;10018;51.230;7.860;2023-05-10T14:30:05;12.53;;;8.40;;
19733;SDS011;10018;51.230;7.860;2023-05-10T14:32:31;13.47;;;8.47;;
19733;SDS011;10018;51.230;7.860;2023-05-10T14:34:57;13.60;;;7.93;;
19733;SDS011;10018;51.230;7.860;2023-05-10T14:37:25;12.13;;;7.57;;
19733;SDS011;10018;51.230;7.860;2023-05-10T14:39:51;14.53;;;8.37;;
19733;SDS011;10018;51.230;7.860;2023-05-10T14:42:17;12.83;;;7.93;;
19733;SDS011;10018;51.230;7.860;2023-05-10T14:44:45;13.13;;;8.27;;
19733;SDS011;10018;51.230;7.860;2023-05-10T14:47:10;13.40;;;7.83;;
19733;SDS011;10018;51.230;7.860;2023-05-10T14:49:36;13.87;;;8.60;;
19733;SDS011;10018;51.230;7.860;2023-05-10T14:52:02;13.27;;;9.10;;
19733;SDS011;10018;51.230;7.860;2023-05-10T14:54:28;12.97;;;8.20;;
19733;SDS011;10018;51.230;7.860;2023-05-10T14:56:53;16.53;;;9.43;;
19733;SDS011;10018;51.230;7.860;2023-05-10T14:59:19;13.53;;;8.17;;
19733;SDS011;10018;51.230;7.860;2023-05-10T15:01:45;13.23;;;8.77;;
19733;SDS011;10018;51.230;7.860;2023-05-10T15:04:11;13.13;;;9.07;;
19733;SDS011;10018;51.230;7.860;2023-05-10T15:06:38;15.40;;;9.30;;
19733;SDS011;10018;51.230;7.860;2023-05-10T15:09:04;15.90;;;10.57;;
19733;SDS011;10018;51.230;7.860;2023-05-10T15:11:30;18.50;;;10.70;;
19733;SDS011;10018;51.230;7.860;2023-05-10T15:13:56;13.63;;;8.87;;
19733;SDS011;10018;51.230;7.860;2023-05-10T15:16:22;20.10;;;10.13;;
19733;SDS011;10018;51.230;7.860;2023-05-10T15:18:47;13.47;;;8.60;;
19733;SDS011;10018;51.230;7.860;2023-05-10T15:21:13;16.70;;;8.70;;
19733;SDS011;10018;51.230;7.860;2023-05-10T15:23:39;15.97;;;8.87;;
19733;SDS011;10018;51.230;7.860;2023-05-10T15:26:04;16.90;;;8.17;;